createdAt,value
2022-10-26T00:01:54.752Z,10.50
2022-10-26T00:04:23.583Z,12.60
2022-10-26T00:06:52.251Z,10.10
2022-10-26T00:09:20.929Z,9.70
2022-10-26T00:11:49.653Z,14.50
2022-10-26T00:14:18.532Z,10.00
2022-10-26T00:16:47.531Z,14.10
2022-10-26T00:19:16.262Z,10.10
2022-10-26T00:21:45.016Z,12.30
2022-10-26T00:24:14.696Z,10.60
2022-10-26T00:26:43.453Z,13.10
2022-10-26T00:29:13.013Z,17.30
2022-10-26T00:31:41.787Z,14.60
2022-10-26T00:34:12.248Z,14.40
2022-10-26T00:36:41.123Z,14.10
2022-10-26T00:39:13.637Z,9.60
2022-10-26T00:41:42.410Z,16.80
2022-10-26T00:44:48.310Z,10.70
2022-10-26T00:47:41.053Z,11.30
2022-10-26T00:50:19.172Z,13.80
2022-10-26T00:52:51.020Z,15.50
2022-10-26T00:55:27.213Z,14.40
2022-10-26T00:57:56.022Z,21.50
2022-10-26T01:00:24.748Z,15.60
2022-10-26T01:02:57.483Z,14.40
2022-10-26T01:05:27.341Z,12.40
2022-10-26T01:07:56.695Z,13.70
2022-10-26T01:10:26.376Z,14.90
2022-10-26T01:12:57.717Z,14.20
2022-10-26T01:15:52.112Z,15.30
2022-10-26T01:18:32.221Z,11.90
2022-10-26T01:21:31.133Z,12.80
2022-10-26T01:24:23.945Z,12.50
2022-10-26T01:27:24.140Z,15.50
2022-10-26T01:30:28.521Z,13.70
2022-10-26T01:33:37.338Z,14.30
2022-10-26T01:36:28.157Z,12.10
2022-10-26T01:39:36.404Z,14.80
2022-10-26T01:42:09.186Z,12.30
2022-10-26T01:44:49.712Z,14.70
2022-10-26T01:47:20.896Z,13.40
2022-10-26T01:49:59.163Z,15.90
2022-10-26T01:52:28.708Z,14.70
2022-10-26T01:55:07.230Z,13.60
2022-10-26T01:57:38.470Z,13.50
2022-10-26T02:00:12.802Z,11.40
2022-10-26T02:03:04.623Z,11.20
2022-10-26T02:06:06.004Z,12.30
2022-10-26T02:08:53.177Z,14.90
2022-10-26T02:11:41.867Z,14.20
2022-10-26T02:14:37.633Z,12.20
2022-10-26T02:17:16.579Z,15.50
2022-10-26T02:19:55.033Z,17.90
2022-10-26T02:22:45.439Z,17.40
2022-10-26T02:25:30.929Z,17.10
2022-10-26T02:28:08.013Z,16.00
2022-10-26T02:30:39.034Z,14.00
2022-10-26T02:33:12.310Z,12.70
2022-10-26T02:35:47.460Z,14.50
2022-10-26T02:38:20.362Z,11.90
2022-10-26T02:40:51.920Z,18.20
2022-10-26T02:43:23.670Z,20.00
2022-10-26T02:45:59.823Z,19.50
2022-10-26T02:48:28.681Z,21.70
2022-10-26T02:51:12.837Z,15.00
2022-10-26T02:53:54.116Z,17.40
2022-10-26T02:56:31.271Z,12.40
2022-10-26T02:59:06.049Z,14.90
2022-10-26T03:01:35.857Z,12.40
2022-10-26T03:04:05.079Z,15.60
2022-10-26T03:06:33.875Z,11.80
2022-10-26T03:09:02.829Z,13.50
2022-10-26T03:11:31.541Z,22.00
2022-10-26T03:14:00.293Z,19.10
2022-10-26T03:16:29.087Z,17.30
2022-10-26T03:18:57.845Z,15.20
2022-10-26T03:21:26.960Z,15.80
2022-10-26T03:23:55.684Z,16.70
2022-10-26T03:26:24.495Z,18.10
2022-10-26T03:28:53.240Z,17.50
2022-10-26T03:31:21.982Z,18.60
2022-10-26T03:33:50.735Z,18.00
2022-10-26T03:36:19.435Z,18.50
2022-10-26T03:38:48.080Z,19.60
2022-10-26T03:41:16.831Z,22.90
2022-10-26T03:43:45.754Z,18.70
2022-10-26T03:46:15.059Z,21.00
2022-10-26T03:48:43.954Z,21.40
2022-10-26T03:51:12.736Z,22.90
2022-10-26T03:53:41.419Z,22.10
2022-10-26T03:56:10.136Z,20.30
2022-10-26T03:58:38.927Z,22.70
2022-10-26T04:01:07.621Z,22.90
2022-10-26T04:03:36.348Z,25.20
2022-10-26T04:06:05.764Z,24.30
2022-10-26T04:08:34.523Z,25.80
2022-10-26T04:11:04.632Z,24.30
2022-10-26T04:13:33.865Z,26.70
2022-10-26T04:16:02.601Z,25.70
2022-10-26T04:18:31.347Z,29.60
2022-10-26T04:21:03.376Z,30.90
2022-10-26T04:26:00.764Z,36.80
2022-10-26T04:28:29.597Z,41.40
2022-10-26T04:30:58.315Z,31.30
2022-10-26T04:33:27.149Z,25.90
2022-10-26T04:36:01.367Z,30.90
2022-10-26T04:38:30.066Z,27.70
2022-10-26T04:40:58.771Z,22.20
2022-10-26T04:43:27.467Z,24.90
2022-10-26T04:45:57.974Z,27.70
2022-10-26T04:48:26.704Z,28.50
2022-10-26T04:50:59.893Z,25.50
2022-10-26T04:53:28.799Z,47.60
2022-10-26T04:56:01.835Z,23.30
2022-10-26T04:58:31.022Z,25.10
2022-10-26T05:01:02.583Z,25.70
2022-10-26T05:03:31.472Z,20.60
2022-10-26T05:06:00.426Z,22.00
2022-10-26T05:08:30.179Z,23.10
2022-10-26T05:10:58.925Z,21.80
2022-10-26T05:16:01.380Z,23.70
2022-10-26T05:18:30.106Z,18.40
2022-10-26T05:20:58.855Z,31.00
2022-10-26T05:23:27.712Z,25.30
2022-10-26T05:25:57.007Z,22.10
2022-10-26T05:28:25.793Z,29.90
2022-10-26T05:30:54.510Z,21.40
2022-10-26T05:33:23.204Z,24.30
2022-10-26T05:35:55.571Z,23.90
2022-10-26T05:38:24.383Z,34.10
2022-10-26T05:40:54.815Z,22.70
2022-10-26T05:43:24.451Z,24.60
2022-10-26T05:45:54.560Z,26.00
2022-10-26T05:48:23.463Z,24.40
2022-10-26T05:50:53.760Z,29.80
2022-10-26T05:53:22.724Z,33.70
2022-10-26T05:55:51.931Z,34.20
2022-10-26T05:58:21.052Z,43.50
2022-10-26T06:01:35.469Z,35.30
2022-10-26T06:04:30.560Z,36.30
2022-10-26T06:06:59.677Z,27.50
2022-10-26T06:09:28.949Z,38.20
2022-10-26T06:11:58.227Z,37.90
2022-10-26T06:14:27.600Z,37.30
2022-10-26T06:22:35.326Z,23.00
2022-10-26T06:25:36.636Z,24.30
2022-10-26T06:28:36.126Z,23.00
2022-10-26T06:31:05.226Z,29.00
2022-10-26T06:33:34.553Z,25.60
2022-10-26T06:36:23.318Z,27.00
2022-10-26T06:39:04.525Z,22.60
2022-10-26T06:41:36.286Z,24.60
2022-10-26T06:44:06.372Z,26.10
2022-10-26T06:46:56.926Z,27.80
2022-10-26T06:50:02.074Z,22.20
2022-10-26T06:52:44.460Z,34.00
2022-10-26T06:55:17.632Z,39.70
2022-10-26T06:57:46.695Z,37.50
2022-10-26T07:00:26.038Z,46.30
2022-10-26T07:02:55.023Z,54.90
2022-10-26T07:05:24.121Z,43.50
2022-10-26T07:07:53.259Z,44.10
2022-10-26T07:10:22.496Z,45.10
2022-10-26T07:12:51.383Z,38.40
2022-10-26T07:15:20.252Z,36.20
2022-10-26T07:17:50.266Z,41.10
2022-10-26T07:20:21.536Z,36.20
2022-10-26T07:22:57.232Z,32.70
2022-10-26T07:25:27.004Z,35.70
2022-10-26T07:28:00.276Z,31.40
2022-10-26T07:30:30.509Z,41.70
2022-10-26T07:33:20.317Z,39.90
2022-10-26T07:35:49.203Z,46.10
2022-10-26T07:38:18.096Z,128.50
2022-10-26T07:40:46.920Z,238.60
2022-10-26T07:43:16.423Z,82.70
2022-10-26T07:45:45.358Z,73.40
2022-10-26T07:48:14.341Z,75.30
2022-10-26T07:50:43.159Z,42.00
2022-10-26T07:53:12.011Z,39.50
2022-10-26T07:55:40.754Z,62.40
2022-10-26T07:58:09.471Z,54.10
2022-10-26T08:00:38.208Z,63.20
2022-10-26T08:03:06.990Z,77.70
2022-10-26T08:05:36.046Z,103.80
2022-10-26T08:08:05.709Z,45.30
2022-10-26T08:10:34.732Z,71.50
2022-10-26T08:13:03.556Z,34.00
2022-10-26T08:15:32.367Z,27.40
2022-10-26T08:18:01.178Z,23.30
2022-10-26T08:20:30.042Z,21.90
2022-10-26T08:23:01.447Z,30.60
2022-10-26T08:25:30.438Z,17.60
2022-10-26T08:28:03.594Z,18.60
2022-10-26T08:30:33.069Z,16.90
2022-10-26T08:33:05.453Z,19.90
2022-10-26T08:35:34.891Z,19.60
2022-10-26T08:38:03.632Z,18.30
2022-10-26T08:40:37.649Z,17.00
2022-10-26T08:43:31.825Z,16.80
2022-10-26T08:46:33.138Z,14.30
2022-10-26T08:49:28.268Z,14.80
2022-10-26T08:52:02.465Z,16.00
2022-10-26T08:54:40.869Z,20.20
2022-10-26T08:57:21.369Z,23.70
2022-10-26T08:59:59.456Z,14.90
2022-10-26T09:02:28.391Z,20.10
2022-10-26T09:04:59.614Z,12.90
2022-10-26T09:07:57.347Z,14.50
2022-10-26T09:10:50.990Z,17.40
2022-10-26T09:13:42.266Z,18.10
2022-10-26T09:16:46.152Z,17.80
2022-10-26T09:19:58.589Z,12.40
2022-10-26T09:22:45.819Z,11.20
2022-10-26T09:25:23.744Z,16.10
2022-10-26T09:28:00.755Z,16.90
2022-10-26T09:30:30.502Z,14.90
2022-10-26T09:33:22.570Z,14.20
2022-10-26T09:36:01.545Z,13.70
2022-10-26T09:38:41.252Z,12.10
2022-10-26T09:41:41.137Z,10.50
2022-10-26T09:44:31.612Z,17.00
2022-10-26T09:47:21.614Z,13.40
2022-10-26T09:50:06.731Z,12.60
2022-10-26T09:52:35.494Z,13.80
2022-10-26T09:55:04.566Z,10.10
2022-10-26T09:57:33.686Z,10.90
2022-10-26T10:00:02.629Z,14.10
2022-10-26T10:02:45.304Z,10.40
2022-10-26T10:05:51.789Z,11.90
2022-10-26T10:08:27.538Z,10.00
2022-10-26T10:11:11.225Z,11.00
2022-10-26T10:13:46.325Z,12.00
2022-10-26T10:16:24.054Z,8.40
2022-10-26T10:18:59.291Z,9.10
2022-10-26T10:21:38.526Z,11.20
2022-10-26T10:24:53.400Z,7.80
2022-10-26T10:27:23.597Z,9.50
2022-10-26T10:30:04.186Z,12.50
2022-10-26T10:35:25.769Z,11.00
2022-10-26T10:37:54.529Z,12.10
2022-10-26T10:40:27.564Z,13.00
2022-10-26T10:43:14.406Z,14.40
2022-10-26T10:45:49.260Z,13.10
2022-10-26T10:48:25.258Z,7.30
2022-10-26T10:51:12.632Z,9.90
2022-10-26T10:53:51.972Z,9.40
2022-10-26T10:56:42.323Z,7.40
2022-10-26T11:00:04.115Z,8.30
2022-10-26T11:03:08.847Z,9.90
2022-10-26T11:05:51.458Z,11.90
2022-10-26T11:08:38.078Z,9.60
2022-10-26T11:11:28.872Z,11.40
2022-10-26T11:14:20.267Z,7.60
2022-10-26T11:17:12.732Z,8.20
2022-10-26T11:19:54.826Z,8.20
2022-10-26T11:22:42.038Z,8.50
2022-10-26T11:25:22.789Z,9.60
2022-10-26T11:28:11.145Z,8.70
2022-10-26T11:30:49.619Z,8.80
2022-10-26T11:33:36.740Z,7.90
2022-10-26T11:36:12.423Z,12.80
2022-10-26T11:38:57.174Z,8.90
2022-10-26T11:41:37.378Z,9.40
2022-10-26T11:44:17.800Z,14.20
2022-10-26T11:47:01.414Z,9.70
2022-10-26T11:49:42.330Z,8.60
2022-10-26T11:52:29.888Z,10.90
2022-10-26T11:55:04.828Z,6.50
2022-10-26T11:57:36.860Z,8.30
2022-10-26T12:03:12.158Z,6.70
2022-10-26T12:05:40.969Z,7.80
2022-10-26T12:08:24.339Z,9.50
2022-10-26T12:11:13.869Z,8.70
2022-10-26T12:14:07.388Z,10.30
2022-10-26T12:16:51.516Z,8.80
2022-10-26T12:19:54.552Z,7.90
2022-10-26T12:22:32.413Z,8.10
2022-10-26T12:25:15.463Z,11.30
2022-10-26T12:27:44.416Z,10.20
2022-10-26T12:30:19.050Z,7.80
2022-10-26T12:32:48.953Z,7.00
2022-10-26T12:35:40.728Z,6.80
2022-10-26T12:38:21.671Z,7.60
2022-10-26T12:41:21.023Z,9.40
2022-10-26T12:43:50.033Z,6.20
2022-10-26T12:46:18.964Z,10.70
2022-10-26T12:48:49.955Z,10.70
2022-10-26T12:51:21.852Z,6.60
2022-10-26T12:54:02.975Z,9.00
2022-10-26T12:56:56.431Z,8.10
2022-10-26T12:59:50.305Z,6.50
2022-10-26T13:02:59.763Z,9.90
2022-10-26T13:06:24.346Z,7.50
2022-10-26T13:08:58.833Z,12.10
2022-10-26T13:11:42.884Z,14.80
2022-10-26T13:14:31.529Z,7.00
2022-10-26T13:17:02.385Z,7.90
2022-10-26T13:19:38.180Z,12.00
2022-10-26T13:22:20.243Z,10.60
2022-10-26T13:24:55.508Z,10.10
2022-10-26T13:27:41.927Z,9.90
2022-10-26T13:30:22.825Z,12.20
2022-10-26T13:32:56.570Z,6.50
2022-10-26T13:35:26.818Z,10.80
2022-10-26T13:37:57.490Z,7.30
2022-10-26T13:40:30.380Z,13.30
2022-10-26T13:43:04.979Z,11.90
2022-10-26T13:45:58.782Z,10.60
2022-10-26T13:48:39.435Z,7.70
2022-10-26T13:51:23.924Z,9.30
2022-10-26T13:54:00.511Z,9.30
2022-10-26T13:56:48.939Z,6.10
2022-10-26T14:02:15.928Z,8.90
2022-10-26T14:04:53.020Z,11.10
2022-10-26T14:07:26.923Z,7.30
2022-10-26T14:09:58.203Z,12.40
2022-10-26T14:12:31.122Z,11.90
2022-10-26T14:15:08.656Z,5.30
2022-10-26T14:17:37.409Z,7.80
2022-10-26T14:20:06.841Z,8.70
2022-10-26T14:22:35.651Z,9.50
2022-10-26T14:25:04.700Z,12.00
2022-10-26T14:27:39.502Z,7.00
2022-10-26T14:30:24.445Z,10.10
2022-10-26T14:32:53.957Z,13.80
2022-10-26T14:35:28.288Z,18.50
2022-10-26T14:38:22.539Z,8.90
2022-10-26T14:40:52.464Z,10.90
2022-10-26T14:43:24.645Z,10.40
2022-10-26T14:45:54.608Z,6.00
2022-10-26T14:48:32.501Z,7.20
2022-10-26T14:51:17.525Z,10.30
2022-10-26T14:53:53.050Z,13.40
2022-10-26T14:56:36.189Z,15.20
2022-10-26T14:59:32.194Z,16.90
2022-10-26T15:02:21.296Z,13.70
2022-10-26T15:05:20.165Z,17.00
2022-10-26T15:07:49.667Z,10.80
2022-10-26T15:10:37.253Z,17.00
2022-10-26T15:13:34.595Z,12.00
2022-10-26T15:16:15.828Z,23.40
2022-10-26T15:18:52.332Z,24.00
2022-10-26T15:21:43.619Z,32.20
2022-10-26T15:27:09.431Z,23.30
2022-10-26T15:29:52.072Z,22.10
2022-10-26T15:32:32.717Z,23.40
2022-10-26T15:35:12.100Z,16.80
2022-10-26T15:37:43.534Z,18.20
2022-10-26T15:40:14.810Z,20.40
2022-10-26T15:42:53.687Z,23.90
2022-10-26T15:45:54.743Z,28.00
2022-10-26T15:48:38.007Z,25.20
2022-10-26T15:51:38.309Z,26.00
2022-10-26T15:57:52.738Z,21.00
2022-10-26T16:00:39.815Z,14.20
2022-10-26T16:06:34.508Z,84.80
2022-10-26T16:10:19.646Z,85.70
2022-10-26T16:14:33.339Z,68.80
2022-10-26T16:20:54.364Z,50.90
2022-10-26T16:47:07.054Z,44.30
2022-10-26T16:57:59.648Z,70.30
2022-10-26T17:26:24.045Z,116.80
2022-10-26T17:29:30.724Z,120.20
2022-10-26T18:22:00.660Z,102.50
2022-10-26T18:25:27.772Z,88.50
2022-10-26T19:09:47.763Z,117.50
2022-10-26T19:13:31.871Z,143.30
2022-10-26T19:16:47.357Z,134.00
2022-10-26T19:23:23.388Z,131.00
2022-10-26T19:26:19.611Z,136.40
2022-10-26T19:29:57.016Z,152.20
2022-10-26T19:32:44.209Z,137.30
2022-10-26T19:35:17.280Z,130.40
2022-10-26T19:37:52.582Z,148.60
2022-10-26T19:40:28.058Z,145.50
2022-10-26T19:43:12.309Z,148.90
2022-10-26T19:46:09.513Z,129.90
2022-10-26T19:49:33.592Z,116.90
2022-10-26T19:52:14.267Z,179.70
2022-10-26T19:54:55.668Z,204.60
2022-10-26T19:57:46.526Z,167.30
2022-10-26T20:04:05.773Z,166.80
2022-10-26T20:10:35.067Z,161.90
2022-10-26T20:21:41.080Z,118.80
2022-10-26T20:28:39.432Z,134.90
2022-10-26T20:32:26.691Z,137.00
2022-10-26T20:40:04.540Z,121.70
2022-10-26T21:51:46.250Z,69.00
